Linwood, New Jersey
Current Conditions -  °F | °C
As of 2:54 PM on Thursday 29 Jan 2015 (Local Time) from KACY Reporting Station
Broken Clouds Broken Clouds  
Wind Chill: 26°   Ceiling: 11000
Heat Index: 32°   Visibility: 10mi
Dew Point: 20°   Wind: 7mph
Humidity: 61%   Direction: 160°SSE
Pressure: 30.2"   Gusts: NA
Location:  39.35°N, 74.57°W
Report Text: KACY 291954Z 16006KT 10SM BKN110 00/M07 A3020 RMK AO2 SLP226 T00001067
Loading
Personal Weather Stations






























Interactive Weather Map New forecast layout! Learn more

10-Day Weather Forecast

Advertisements
Track Severe Weather on mobile